createdAt,value
2022-10-28T00:01:28.503Z,14.39
2022-10-28T00:04:15.927Z,14.38
2022-10-28T00:07:03.915Z,14.38
2022-10-28T00:09:51.251Z,14.37
2022-10-28T00:12:39.034Z,14.34
2022-10-28T00:15:26.520Z,14.30
2022-10-28T00:18:13.979Z,14.32
2022-10-28T00:21:26.182Z,14.26
2022-10-28T00:24:14.184Z,14.24
2022-10-28T00:27:01.429Z,14.23
2022-10-28T00:29:49.089Z,14.15
2022-10-28T00:32:36.530Z,14.10
2022-10-28T00:35:23.895Z,14.01
2022-10-28T00:38:11.280Z,13.90
2022-10-28T00:40:58.619Z,13.88
2022-10-28T00:43:48.756Z,13.91
2022-10-28T00:46:41.222Z,13.89
2022-10-28T00:49:32.143Z,13.94
2022-10-28T00:52:24.360Z,14.02
2022-10-28T00:55:13.906Z,14.08
2022-10-28T00:58:03.107Z,14.07
2022-10-28T01:00:50.567Z,14.12
2022-10-28T01:03:37.861Z,14.15
2022-10-28T01:06:28.042Z,14.17
2022-10-28T01:09:15.395Z,14.16
2022-10-28T01:12:27.041Z,14.19
2022-10-28T01:15:27.812Z,14.23
2022-10-28T01:18:39.924Z,14.19
2022-10-28T01:21:45.786Z,14.19
2022-10-28T01:24:45.437Z,14.15
2022-10-28T01:27:55.615Z,14.20
2022-10-28T01:31:25.090Z,14.15
2022-10-28T01:34:27.252Z,14.10
2022-10-28T01:37:19.865Z,14.02
2022-10-28T01:40:20.816Z,14.05
2022-10-28T01:43:17.112Z,14.05
2022-10-28T01:46:40.190Z,13.99
2022-10-28T01:50:06.385Z,14.00
2022-10-28T01:52:58.303Z,13.91
2022-10-28T01:55:50.206Z,13.93
2022-10-28T01:58:39.275Z,13.90
2022-10-28T02:01:28.954Z,13.91
2022-10-28T02:04:16.558Z,13.85
2022-10-28T02:07:04.789Z,13.91
2022-10-28T02:10:15.927Z,13.93
2022-10-28T02:13:08.254Z,13.97
2022-10-28T02:16:04.727Z,13.98
2022-10-28T02:19:27.103Z,13.92
2022-10-28T02:22:43.358Z,13.90
2022-10-28T02:25:37.680Z,13.84
2022-10-28T02:28:37.109Z,13.86
2022-10-28T02:31:35.016Z,13.89
2022-10-28T02:34:30.203Z,13.90
2022-10-28T02:37:27.092Z,13.91
2022-10-28T02:40:19.213Z,13.96
2022-10-28T02:43:09.072Z,13.96
2022-10-28T02:46:00.311Z,13.97
2022-10-28T02:48:51.698Z,14.02
2022-10-28T02:51:45.410Z,14.07
2022-10-28T02:54:45.609Z,14.12
2022-10-28T02:57:36.112Z,14.15
2022-10-28T03:00:24.975Z,14.19
2022-10-28T03:03:13.440Z,14.23
2022-10-28T03:06:00.830Z,14.25
2022-10-28T03:08:48.106Z,14.27
2022-10-28T03:11:35.631Z,14.27
2022-10-28T03:14:23.311Z,14.26
2022-10-28T03:17:10.596Z,14.24
2022-10-28T03:19:58.253Z,14.26
2022-10-28T03:22:46.519Z,14.17
2022-10-28T03:25:33.877Z,14.25
2022-10-28T03:28:21.148Z,14.22
2022-10-28T03:31:08.940Z,14.24
2022-10-28T03:33:56.262Z,14.18
2022-10-28T03:36:43.553Z,14.17
2022-10-28T03:39:30.853Z,14.13
2022-10-28T03:42:18.157Z,14.11
2022-10-28T03:45:06.001Z,14.06
2022-10-28T03:47:53.564Z,14.06
2022-10-28T03:50:41.434Z,14.02
2022-10-28T03:53:31.207Z,13.93
2022-10-28T03:56:18.850Z,13.84
2022-10-28T03:59:08.653Z,13.81
2022-10-28T04:01:56.015Z,13.80
2022-10-28T04:04:43.492Z,13.76
2022-10-28T04:07:30.832Z,13.76
2022-10-28T04:10:18.175Z,13.80
2022-10-28T04:13:06.652Z,13.81
2022-10-28T04:15:54.033Z,13.71
2022-10-28T04:18:41.305Z,13.71
2022-10-28T04:21:28.685Z,13.69
2022-10-28T04:24:16.194Z,13.73
2022-10-28T04:27:04.203Z,13.68
2022-10-28T04:29:51.595Z,13.68
2022-10-28T04:32:40.711Z,13.71
2022-10-28T04:35:28.003Z,13.77
2022-10-28T04:38:17.091Z,13.82
2022-10-28T04:41:04.687Z,13.85
2022-10-28T04:43:52.072Z,13.83
2022-10-28T04:46:39.369Z,13.85
2022-10-28T04:49:26.716Z,13.88
2022-10-28T04:52:15.740Z,13.86
2022-10-28T04:55:03.501Z,13.80
2022-10-28T04:57:58.946Z,13.74
2022-10-28T05:00:46.199Z,13.79
2022-10-28T05:03:34.257Z,13.81
2022-10-28T05:06:21.685Z,13.83
2022-10-28T05:09:08.990Z,13.76
2022-10-28T05:11:56.437Z,13.79
2022-10-28T05:14:46.511Z,13.80
2022-10-28T05:17:34.558Z,13.66
2022-10-28T05:20:22.012Z,13.78
2022-10-28T05:23:09.369Z,13.83
2022-10-28T05:25:56.661Z,13.86
2022-10-28T05:28:44.059Z,13.88
2022-10-28T05:31:31.339Z,13.87
2022-10-28T05:34:18.671Z,13.85
2022-10-28T05:37:05.948Z,13.80
2022-10-28T05:39:53.370Z,13.77
2022-10-28T05:42:42.743Z,13.81
2022-10-28T05:48:25.308Z,13.83
2022-10-28T05:51:12.599Z,13.85
2022-10-28T05:53:59.934Z,13.87
2022-10-28T05:56:47.226Z,13.84
2022-10-28T05:59:34.725Z,13.88
2022-10-28T06:02:22.017Z,13.86
2022-10-28T06:05:10.462Z,13.80
2022-10-28T06:07:57.784Z,13.71
2022-10-28T06:10:56.456Z,13.66
2022-10-28T06:13:43.995Z,13.62
2022-10-28T06:16:31.630Z,13.61
2022-10-28T06:19:20.099Z,13.63
2022-10-28T06:22:07.486Z,13.62
2022-10-28T06:24:54.770Z,13.63
2022-10-28T06:27:42.428Z,13.62
2022-10-28T06:30:29.789Z,13.65
2022-10-28T06:33:17.191Z,13.63
2022-10-28T06:36:05.226Z,13.58
2022-10-28T06:38:52.674Z,13.56
2022-10-28T06:41:40.040Z,13.55
2022-10-28T06:44:27.399Z,13.52
2022-10-28T06:47:16.154Z,13.51
2022-10-28T06:50:03.538Z,13.50
2022-10-28T06:52:50.888Z,13.53
2022-10-28T06:55:38.213Z,13.48
2022-10-28T06:58:26.176Z,13.52
2022-10-28T07:01:13.678Z,13.57
2022-10-28T07:04:00.966Z,13.60
2022-10-28T07:06:49.923Z,13.63
2022-10-28T07:09:39.829Z,13.65
2022-10-28T07:12:28.178Z,13.69
2022-10-28T07:15:15.610Z,13.74
2022-10-28T07:18:03.063Z,13.76
2022-10-28T07:20:50.638Z,13.83
2022-10-28T07:23:37.916Z,13.86
2022-10-28T07:26:25.316Z,13.83
2022-10-28T07:29:12.633Z,13.87
2022-10-28T07:32:00.317Z,13.93
2022-10-28T07:34:47.707Z,14.00
2022-10-28T07:37:35.081Z,14.13
2022-10-28T07:40:22.935Z,14.20
2022-10-28T07:43:10.244Z,14.21
2022-10-28T07:45:58.360Z,14.35
2022-10-28T07:48:45.712Z,14.47
2022-10-28T07:51:33.018Z,14.51
2022-10-28T07:54:20.369Z,14.61
2022-10-28T07:57:07.642Z,14.72
2022-10-28T07:59:54.978Z,14.81
2022-10-28T08:02:42.479Z,14.91
2022-10-28T08:05:29.886Z,15.04
2022-10-28T08:08:17.272Z,15.09
2022-10-28T08:11:10.796Z,15.26
2022-10-28T08:13:58.145Z,15.32
2022-10-28T08:16:45.656Z,15.47
2022-10-28T08:19:33.305Z,15.56
2022-10-28T08:22:20.659Z,15.67
2022-10-28T08:25:08.351Z,15.66
2022-10-28T08:27:57.492Z,15.81
2022-10-28T08:30:57.213Z,15.88
2022-10-28T08:33:55.811Z,15.97
2022-10-28T08:36:43.240Z,16.09
2022-10-28T08:39:30.591Z,16.17
2022-10-28T08:42:29.231Z,16.33
2022-10-28T08:45:48.325Z,16.50
2022-10-28T08:48:37.062Z,16.62
2022-10-28T08:51:46.123Z,16.83
2022-10-28T08:54:53.346Z,16.97
2022-10-28T08:57:52.923Z,17.17
2022-10-28T09:00:40.347Z,17.25
2022-10-28T09:03:34.424Z,17.43
2022-10-28T09:06:24.255Z,17.63
2022-10-28T09:09:19.813Z,17.69
2022-10-28T09:12:23.311Z,17.91
2022-10-28T09:15:35.461Z,18.14
2022-10-28T09:18:56.075Z,18.33
2022-10-28T09:22:03.046Z,18.55
2022-10-28T09:24:50.327Z,18.64
2022-10-28T09:27:44.860Z,18.77
2022-10-28T09:30:44.600Z,18.83
2022-10-28T09:33:34.597Z,18.92
2022-10-28T09:36:29.369Z,19.07
2022-10-28T09:39:25.296Z,19.18
2022-10-28T09:42:27.240Z,19.30
2022-10-28T09:45:22.378Z,19.49
2022-10-28T09:48:19.229Z,19.61
2022-10-28T09:51:07.781Z,19.70
2022-10-28T09:53:59.486Z,19.83
2022-10-28T09:56:46.839Z,20.00
2022-10-28T09:59:34.714Z,20.12
2022-10-28T10:02:27.307Z,20.27
2022-10-28T10:05:19.014Z,20.33
2022-10-28T10:08:09.044Z,20.40
2022-10-28T10:11:05.344Z,20.48
2022-10-28T10:13:54.230Z,20.60
2022-10-28T10:16:47.277Z,20.68
2022-10-28T10:20:05.830Z,20.80
2022-10-28T10:22:53.467Z,20.98
2022-10-28T10:25:41.355Z,21.25
2022-10-28T10:28:29.232Z,21.51
2022-10-28T10:31:26.705Z,21.77
2022-10-28T10:34:23.616Z,21.97
2022-10-28T10:37:20.060Z,22.27
2022-10-28T10:40:19.336Z,22.48
2022-10-28T10:43:22.822Z,22.60
2022-10-28T10:46:16.476Z,22.80
2022-10-28T10:49:14.574Z,23.00
2022-10-28T10:52:04.656Z,23.04
2022-10-28T10:54:59.264Z,23.15
2022-10-28T10:57:47.622Z,23.29
2022-10-28T11:00:44.269Z,23.49
2022-10-28T11:03:36.711Z,23.64
2022-10-28T11:06:29.131Z,23.50
2022-10-28T11:09:31.408Z,23.60
2022-10-28T11:12:27.874Z,23.73
2022-10-28T11:15:25.323Z,23.85
2022-10-28T11:18:12.518Z,24.05
2022-10-28T11:21:07.310Z,24.16
2022-10-28T11:24:00.737Z,24.34
2022-10-28T11:26:57.035Z,24.59
2022-10-28T11:29:46.006Z,24.63
2022-10-28T11:32:54.810Z,24.80
2022-10-28T11:36:03.380Z,24.79
2022-10-28T11:39:15.087Z,24.93
2022-10-28T11:42:23.768Z,25.08
2022-10-28T11:45:14.056Z,25.20
2022-10-28T11:48:22.748Z,25.29
2022-10-28T11:51:37.906Z,25.86
2022-10-28T11:54:48.448Z,26.13
2022-10-28T11:57:59.665Z,26.44
2022-10-28T12:00:56.289Z,26.17
2022-10-28T12:03:52.894Z,26.41
2022-10-28T12:07:08.132Z,26.49
2022-10-28T12:10:14.535Z,26.31
2022-10-28T12:13:24.955Z,26.19
2022-10-28T12:16:28.989Z,26.29
2022-10-28T12:19:17.776Z,26.10
2022-10-28T12:22:19.724Z,25.80
2022-10-28T12:25:17.294Z,25.50
2022-10-28T12:28:14.587Z,25.40
2022-10-28T12:31:02.926Z,25.44
2022-10-28T12:33:56.590Z,25.71
2022-10-28T12:36:58.349Z,26.12
2022-10-28T12:39:54.229Z,26.77
2022-10-28T12:42:46.092Z,27.18
2022-10-28T12:45:33.472Z,27.47
2022-10-28T12:48:45.857Z,27.77
2022-10-28T12:51:41.258Z,27.69
2022-10-28T12:54:43.821Z,27.53
2022-10-28T12:57:34.503Z,26.90
2022-10-28T13:00:32.153Z,26.47
2022-10-28T13:03:19.520Z,27.21
2022-10-28T13:06:32.208Z,27.30
2022-10-28T13:09:50.432Z,27.15
2022-10-28T13:12:56.784Z,27.01
2022-10-28T13:16:08.381Z,26.97
2022-10-28T13:19:10.161Z,26.95
2022-10-28T13:22:10.079Z,27.30
2022-10-28T13:25:20.021Z,27.63
2022-10-28T13:28:14.798Z,27.74
2022-10-28T13:31:07.285Z,27.83
2022-10-28T13:33:55.859Z,27.99
2022-10-28T13:36:46.952Z,28.24
2022-10-28T13:39:37.161Z,27.94
2022-10-28T13:42:24.445Z,27.41
2022-10-28T13:45:50.489Z,27.33
2022-10-28T13:48:46.399Z,27.18
2022-10-28T13:51:33.968Z,27.22
2022-10-28T13:54:28.666Z,27.01
2022-10-28T13:57:37.560Z,26.65
2022-10-28T14:03:27.290Z,26.26
2022-10-28T14:06:31.171Z,26.06
2022-10-28T14:09:28.872Z,25.65
2022-10-28T14:12:27.650Z,25.33
2022-10-28T14:15:40.614Z,25.14
2022-10-28T14:18:45.013Z,24.81
2022-10-28T14:21:44.771Z,24.49
2022-10-28T14:24:39.183Z,24.34
2022-10-28T14:27:43.226Z,24.12
2022-10-28T14:30:30.625Z,24.02
2022-10-28T14:33:22.934Z,23.89
2022-10-28T14:36:19.328Z,23.66
2022-10-28T14:39:20.125Z,23.55
2022-10-28T14:42:52.675Z,23.40
2022-10-28T14:45:43.315Z,23.23
2022-10-28T14:48:49.643Z,23.09
2022-10-28T14:51:40.263Z,22.93
2022-10-28T14:54:55.601Z,22.91
2022-10-28T14:57:44.743Z,22.76
2022-10-28T15:00:41.190Z,22.63
2022-10-28T15:03:29.823Z,22.51
2022-10-28T15:06:45.948Z,22.36
2022-10-28T15:09:34.979Z,22.29
2022-10-28T15:12:26.238Z,22.21
2022-10-28T15:15:25.138Z,22.09
2022-10-28T15:18:25.688Z,21.98
2022-10-28T15:21:18.071Z,21.81
2022-10-28T15:24:07.604Z,21.75
2022-10-28T15:26:56.041Z,21.69
2022-10-28T15:29:43.721Z,21.61
2022-10-28T15:32:33.851Z,21.57
2022-10-28T15:35:45.197Z,21.37
2022-10-28T15:38:38.299Z,21.29
2022-10-28T15:41:25.620Z,21.13
2022-10-28T15:44:43.019Z,21.15
2022-10-28T15:47:33.301Z,21.01
2022-10-28T15:50:28.440Z,20.78
2022-10-28T15:53:38.107Z,20.70
2022-10-28T15:56:29.718Z,20.67
2022-10-28T15:59:21.630Z,20.54
2022-10-28T16:02:47.842Z,20.41
2022-10-28T16:05:35.421Z,20.31
2022-10-28T16:08:32.425Z,20.19
2022-10-28T16:11:20.394Z,20.14
2022-10-28T16:14:26.688Z,20.15
2022-10-28T16:17:18.526Z,20.03
2022-10-28T16:20:17.061Z,19.98
2022-10-28T16:23:14.959Z,19.96
2022-10-28T16:26:02.776Z,19.91
2022-10-28T16:28:50.123Z,19.91
2022-10-28T16:31:37.491Z,19.88
2022-10-28T16:34:25.173Z,19.83
2022-10-28T16:37:25.809Z,19.82
2022-10-28T16:40:37.777Z,19.69
2022-10-28T16:43:23.905Z,19.61
2022-10-28T16:46:12.670Z,19.52
2022-10-28T16:48:59.943Z,19.52
2022-10-28T16:51:47.311Z,19.48
2022-10-28T16:54:34.618Z,19.49
2022-10-28T17:00:16.045Z,19.51
2022-10-28T17:03:03.666Z,19.54
2022-10-28T17:05:51.011Z,19.56
2022-10-28T17:11:45.926Z,19.45
2022-10-28T17:14:33.248Z,19.46
2022-10-28T17:17:20.759Z,19.43
2022-10-28T17:20:09.896Z,19.42
2022-10-28T17:22:58.338Z,19.43
2022-10-28T17:25:56.036Z,19.41
2022-10-28T17:28:43.633Z,19.39
2022-10-28T17:31:30.972Z,19.40
2022-10-28T17:34:18.698Z,19.31
2022-10-28T17:37:06.109Z,19.28
2022-10-28T17:42:42.787Z,19.26
2022-10-28T17:45:30.178Z,19.28
2022-10-28T17:48:17.524Z,19.28
2022-10-28T17:51:04.903Z,19.30
2022-10-28T17:53:55.729Z,19.31
2022-10-28T17:56:43.218Z,19.31
2022-10-28T17:59:30.859Z,19.32
2022-10-28T18:02:18.290Z,19.30
2022-10-28T18:05:06.090Z,19.30
2022-10-28T18:07:59.813Z,19.26
2022-10-28T18:11:00.139Z,19.27
2022-10-28T18:13:49.988Z,19.24
2022-10-28T18:16:37.539Z,19.28
2022-10-28T18:19:25.119Z,19.29
2022-10-28T18:22:12.837Z,19.27
2022-10-28T18:25:00.149Z,19.27
2022-10-28T18:27:47.523Z,19.29
2022-10-28T18:30:34.820Z,19.26
2022-10-28T18:33:22.206Z,19.23
2022-10-28T18:36:18.257Z,19.16
2022-10-28T18:39:09.495Z,19.13
2022-10-28T18:41:56.781Z,19.10
2022-10-28T18:44:44.253Z,19.02
2022-10-28T18:47:34.536Z,18.96
2022-10-28T18:50:22.022Z,18.92
2022-10-28T18:53:09.911Z,18.86
2022-10-28T18:56:01.063Z,18.83
2022-10-28T18:58:51.310Z,18.77
2022-10-28T19:01:38.773Z,18.71
2022-10-28T19:04:26.296Z,18.67
2022-10-28T19:07:13.654Z,18.61
2022-10-28T19:10:00.948Z,18.65
2022-10-28T19:12:52.811Z,18.63
2022-10-28T19:15:46.532Z,18.70
2022-10-28T19:18:36.575Z,18.81
2022-10-28T19:21:25.313Z,18.97
2022-10-28T19:24:12.592Z,19.10
2022-10-28T19:27:00.212Z,19.29
2022-10-28T19:29:48.282Z,19.47
2022-10-28T19:32:39.319Z,19.60
2022-10-28T19:35:26.603Z,19.67
2022-10-28T19:38:14.299Z,19.67
2022-10-28T19:41:11.269Z,19.73
2022-10-28T19:44:00.516Z,19.72
2022-10-28T19:46:47.821Z,19.69
2022-10-28T19:49:39.370Z,19.63
2022-10-28T19:52:28.034Z,19.63
2022-10-28T19:55:15.562Z,19.68
2022-10-28T19:58:02.876Z,19.67
2022-10-28T20:00:50.286Z,19.67
2022-10-28T20:03:39.259Z,19.68
2022-10-28T20:06:31.889Z,19.70
2022-10-28T20:09:19.505Z,19.71
2022-10-28T20:12:07.465Z,19.71
2022-10-28T20:14:54.940Z,19.72
2022-10-28T20:17:42.744Z,19.72
2022-10-28T20:20:30.030Z,19.70
2022-10-28T20:23:17.650Z,19.69
2022-10-28T20:26:07.000Z,19.68
2022-10-28T20:28:54.667Z,19.67
2022-10-28T20:31:41.943Z,19.60
2022-10-28T20:34:29.246Z,19.62
2022-10-28T20:37:16.591Z,19.65
2022-10-28T20:40:07.329Z,19.66
2022-10-28T20:42:55.742Z,19.65
2022-10-28T20:45:43.362Z,19.61
2022-10-28T20:48:31.101Z,19.61
2022-10-28T20:51:18.462Z,19.56
2022-10-28T20:54:06.310Z,19.52
2022-10-28T20:56:53.573Z,19.45
2022-10-28T20:59:40.873Z,19.40
2022-10-28T21:02:28.330Z,19.36
2022-10-28T21:05:15.796Z,19.33
2022-10-28T21:08:03.196Z,19.29
2022-10-28T21:10:50.637Z,19.22
2022-10-28T21:13:37.959Z,19.19
2022-10-28T21:16:26.816Z,19.16
2022-10-28T21:19:14.234Z,19.15
2022-10-28T21:22:01.530Z,19.16
2022-10-28T21:24:48.832Z,19.07
2022-10-28T21:27:36.551Z,19.01
2022-10-28T21:30:24.874Z,19.01
2022-10-28T21:33:12.300Z,19.02
2022-10-28T21:36:02.798Z,18.95
2022-10-28T21:38:54.711Z,19.03
2022-10-28T21:41:42.405Z,18.95
2022-10-28T21:44:29.801Z,18.89
2022-10-28T21:50:08.533Z,18.86
2022-10-28T21:55:47.143Z,18.84
2022-10-28T21:58:36.702Z,18.79
2022-10-28T22:01:24.625Z,18.77
2022-10-28T22:04:11.986Z,18.73
2022-10-28T22:06:59.275Z,18.75
2022-10-28T22:09:46.982Z,18.71
2022-10-28T22:12:34.285Z,18.65
2022-10-28T22:15:22.847Z,18.59
2022-10-28T22:18:10.452Z,18.50
2022-10-28T22:21:03.600Z,18.52
2022-10-28T22:23:51.191Z,18.49
2022-10-28T22:26:38.605Z,18.51
2022-10-28T22:29:25.989Z,18.55
2022-10-28T22:32:13.265Z,18.54
2022-10-28T22:35:00.586Z,18.56
2022-10-28T22:37:48.105Z,18.50
2022-10-28T22:40:36.209Z,18.53
2022-10-28T22:43:26.471Z,18.48
2022-10-28T22:46:15.145Z,18.43
2022-10-28T22:49:03.670Z,18.38
2022-10-28T22:51:51.013Z,18.31
2022-10-28T22:54:38.363Z,18.25
2022-10-28T22:57:25.618Z,18.28
2022-10-28T23:00:13.404Z,18.28
2022-10-28T23:03:01.160Z,18.22
2022-10-28T23:05:48.542Z,18.15
2022-10-28T23:08:36.771Z,18.07
2022-10-28T23:11:24.403Z,18.05
2022-10-28T23:14:11.766Z,18.04
2022-10-28T23:16:59.816Z,18.03
2022-10-28T23:19:47.159Z,18.02
2022-10-28T23:22:34.487Z,18.05
2022-10-28T23:25:21.926Z,18.04
2022-10-28T23:28:10.028Z,17.98
2022-10-28T23:31:01.910Z,18.07
2022-10-28T23:33:49.375Z,18.07
2022-10-28T23:36:37.566Z,18.12
2022-10-28T23:39:25.135Z,18.08
2022-10-28T23:42:12.458Z,18.09
2022-10-28T23:44:59.800Z,18.03
2022-10-28T23:47:47.112Z,17.98
2022-10-28T23:50:34.370Z,17.95
2022-10-28T23:53:22.311Z,17.87
2022-10-28T23:56:09.660Z,17.83
2022-10-28T23:58:57.013Z,17.76
